22 Sep 2018 18:26 UTC 2018265+18:26 UTC

Overview Datums Bench Marks Data Query Site Visit Daily QC Messages Attributes

042: Nueces Delta 2

27° 53' 19" N   97° 34' 10" W
NUDE2
The Coastal Bend Bays & Estuaries Program Coastal Bend Bays and Estuaries Program

Station Information

Nueces Delta 2
Nueces Delta 2
more pictures
 
Station Name:Nueces Delta 2
DNR ID:042
Location:27° 53' 19" N, 97° 34' 10" W

Water Level Forecasts

Latest Observations

Series Metric English Marine Observed at
Water Temperature 29.8 °C 85.6 °F 85.6 °F Sep 22 13:18 CDT
00h07m ago
Salinity 4.400 psu 4.400 psu 4.400 psu Sep 22 13:18 CDT
00h07m ago

Maps

Nueces Delta 2
All Stations in Area
Entire Network
 

Recent Observations

Date/Time Water
Temp (°F)
Sal (psu)
Sep 22 13:00 CDT 85.3 4.400
Sep 22 12:00 CDT 84.2 4.300
Sep 22 11:00 CDT 83.3 4.500
Sep 22 10:00 CDT 83.5 4.700
Sep 22 09:00 CDT 83.1 4.800
Sep 22 08:00 CDT 83.5 4.700
Sep 22 07:00 CDT 83.8 4.700
Sep 22 06:00 CDT 84.2 4.600
Sep 22 05:00 CDT 84.6 4.500
Sep 22 04:00 CDT 84.9 4.600
Sep 22 03:00 CDT 85.3 4.600
Sep 22 02:00 CDT 85.6 4.700
Sep 22 01:00 CDT 86.2 4.700
Sep 22 00:00 CDT 86.4 4.900
Sep 21 23:00 CDT 86.5 4.600
Sep 21 22:00 CDT 87.1 4.400
Sep 21 21:00 CDT 87.6 4.400
Sep 21 20:00 CDT 88.2 4.600
Sep 21 19:00 CDT 88.9 5.000
Sep 21 18:00 CDT 89.2 5.000
Sep 21 17:00 CDT 89.4 5.300
Sep 21 16:00 CDT 89.1 5.500
Sep 21 15:00 CDT 88.0 5.600
Sep 21 14:00 CDT 86.7 5.700
Sep 21 13:00 CDT 85.6 5.700

Historical Data Availability